createdAt,value
2022-08-23T00:00:54.168Z,0.00
2022-08-23T00:01:53.201Z,0.00
2022-08-23T00:02:53.173Z,0.00
2022-08-23T00:03:53.174Z,0.00
2022-08-23T00:05:00.546Z,0.00
2022-08-23T00:05:54.101Z,0.00
2022-08-23T00:06:53.103Z,0.00
2022-08-23T00:07:53.084Z,0.00
2022-08-23T00:08:53.073Z,0.00
2022-08-23T00:09:53.073Z,0.00
2022-08-23T00:10:53.073Z,0.00
2022-08-23T00:11:53.054Z,0.00
2022-08-23T00:12:53.064Z,0.00
2022-08-23T00:13:53.035Z,0.00
2022-08-23T00:14:53.025Z,0.00
2022-08-23T00:15:53.013Z,0.00
2022-08-23T00:16:52.984Z,0.00
2022-08-23T00:17:52.993Z,0.00
2022-08-23T00:18:52.958Z,0.00
2022-08-23T00:19:53.057Z,0.00
2022-08-23T00:20:52.937Z,0.00
2022-08-23T00:21:52.933Z,0.00
2022-08-23T00:22:52.925Z,0.00
2022-08-23T00:23:52.902Z,0.00
2022-08-23T00:24:52.904Z,0.00
2022-08-23T00:25:52.865Z,0.00
2022-08-23T00:26:52.879Z,0.00
2022-08-23T00:27:52.897Z,0.00
2022-08-23T00:28:52.845Z,0.00
2022-08-23T00:29:52.837Z,0.00
2022-08-23T00:30:52.824Z,0.00
2022-08-23T00:31:52.833Z,0.00
2022-08-23T00:32:52.817Z,0.00
2022-08-23T00:33:53.797Z,0.00
2022-08-23T00:34:52.777Z,0.00
2022-08-23T00:35:52.773Z,0.00
2022-08-23T00:36:52.777Z,0.00
2022-08-23T00:38:32.096Z,0.00
2022-08-23T00:38:53.757Z,0.00
2022-08-23T00:39:52.745Z,0.00
2022-08-23T00:40:52.720Z,0.00
2022-08-23T00:41:52.709Z,0.00
2022-08-23T00:42:52.710Z,0.00
2022-08-23T00:43:52.681Z,0.00
2022-08-23T00:44:52.672Z,0.00
2022-08-23T00:45:52.649Z,0.00
2022-08-23T00:46:52.657Z,0.00
2022-08-23T00:47:52.657Z,0.00
2022-08-23T00:48:52.721Z,0.00
2022-08-23T00:49:52.628Z,0.00
2022-08-23T00:50:52.605Z,0.00
2022-08-23T00:51:53.597Z,0.00
2022-08-23T00:52:52.581Z,0.00
2022-08-23T00:53:52.573Z,0.00
2022-08-23T00:54:52.581Z,0.00
2022-08-23T00:55:52.534Z,0.00
2022-08-23T00:56:52.534Z,0.00
2022-08-23T00:57:52.553Z,0.00
2022-08-23T00:58:52.534Z,0.00
2022-08-23T00:59:52.493Z,0.00
2022-08-23T01:00:52.494Z,0.00
2022-08-23T01:01:52.532Z,0.00
2022-08-23T01:02:52.472Z,0.00
2022-08-23T01:03:59.200Z,0.00
2022-08-23T01:04:53.474Z,0.00
2022-08-23T01:05:52.414Z,0.00
2022-08-23T01:06:52.427Z,0.00
2022-08-23T01:07:52.398Z,0.00
2022-08-23T01:08:52.425Z,0.00
2022-08-23T01:09:52.382Z,0.00
2022-08-23T01:10:52.414Z,0.00
2022-08-23T01:11:52.378Z,0.00
2022-08-23T01:12:52.354Z,0.00
2022-08-23T01:13:52.337Z,0.00
2022-08-23T01:14:52.348Z,0.00
2022-08-23T01:15:52.319Z,0.00
2022-08-23T01:16:52.318Z,0.00
2022-08-23T01:17:52.289Z,0.00
2022-08-23T01:18:52.306Z,0.00
2022-08-23T01:19:52.305Z,0.00
2022-08-23T01:20:52.278Z,0.00
2022-08-23T01:21:52.241Z,0.00
2022-08-23T01:22:52.237Z,0.00
2022-08-23T01:23:52.230Z,0.00
2022-08-23T01:25:06.928Z,0.00
2022-08-23T01:25:53.206Z,0.00
2022-08-23T01:26:52.209Z,0.00
2022-08-23T01:27:52.438Z,0.00
2022-08-23T01:28:52.180Z,0.00
2022-08-23T01:29:52.163Z,0.00
2022-08-23T01:30:52.158Z,0.00
2022-08-23T01:31:52.131Z,0.00
2022-08-23T01:32:52.143Z,0.00
2022-08-23T01:33:52.102Z,0.00
2022-08-23T01:34:52.128Z,0.00
2022-08-23T01:35:52.110Z,0.00
2022-08-23T01:36:52.083Z,0.00
2022-08-23T01:37:52.063Z,0.00
2022-08-23T01:38:52.062Z,0.00
2022-08-23T01:39:52.147Z,0.00
2022-08-23T01:40:52.058Z,0.00
2022-08-23T01:41:52.017Z,0.00
2022-08-23T01:42:52.018Z,0.00
2022-08-23T01:43:52.003Z,0.00
2022-08-23T01:44:51.991Z,0.00
2022-08-23T01:45:52.050Z,0.00
2022-08-23T01:46:56.658Z,0.00
2022-08-23T01:47:52.984Z,0.00
2022-08-23T01:48:51.954Z,0.00
2022-08-23T01:49:51.942Z,0.00
2022-08-23T01:50:51.934Z,0.00
2022-08-23T01:51:51.957Z,0.00
2022-08-23T01:52:51.914Z,0.00
2022-08-23T01:53:51.885Z,0.00
2022-08-23T01:54:51.886Z,0.00
2022-08-23T01:55:51.874Z,0.00
2022-08-23T01:56:51.857Z,0.00
2022-08-23T01:57:51.853Z,0.00
2022-08-23T01:58:51.838Z,0.00
2022-08-23T01:59:51.833Z,0.00
2022-08-23T02:00:51.819Z,0.00
2022-08-23T02:01:51.817Z,0.00
2022-08-23T02:02:51.794Z,0.00
2022-08-23T02:03:58.902Z,0.00
2022-08-23T02:04:52.766Z,0.00
2022-08-23T02:06:51.761Z,0.00
2022-08-23T02:07:51.730Z,0.00
2022-08-23T02:08:52.421Z,0.00
2022-08-23T02:09:51.718Z,0.00
2022-08-23T02:10:51.699Z,0.00
2022-08-23T02:11:51.767Z,0.00
2022-08-23T02:12:51.698Z,0.00
2022-08-23T02:13:51.679Z,0.00
2022-08-23T02:14:51.659Z,0.00
2022-08-23T02:15:51.658Z,0.00
2022-08-23T02:16:58.041Z,0.00
2022-08-23T02:17:52.627Z,0.00
2022-08-23T02:18:51.630Z,0.00
2022-08-23T02:19:51.610Z,0.00
2022-08-23T02:20:51.602Z,0.00
2022-08-23T02:21:51.599Z,0.00
2022-08-23T02:22:51.573Z,0.00
2022-08-23T02:23:51.554Z,0.00
2022-08-23T02:24:51.558Z,0.00
2022-08-23T02:25:51.530Z,0.00
2022-08-23T02:26:56.490Z,0.00
2022-08-23T02:27:52.511Z,0.00
2022-08-23T02:28:51.499Z,0.00
2022-08-23T02:29:52.733Z,0.00
2022-08-23T02:30:51.502Z,0.00
2022-08-23T02:31:51.450Z,0.00
2022-08-23T02:32:51.455Z,0.00
2022-08-23T02:33:51.452Z,0.00
2022-08-23T02:35:04.616Z,0.00
2022-08-23T02:35:52.411Z,0.00
2022-08-23T02:36:51.403Z,0.00
2022-08-23T02:37:51.399Z,0.00
2022-08-23T02:38:51.383Z,0.00
2022-08-23T02:39:51.430Z,0.00
2022-08-23T02:40:52.903Z,0.00
2022-08-23T02:41:52.362Z,0.00
2022-08-23T02:42:51.344Z,0.00
2022-08-23T02:43:51.335Z,0.00
2022-08-23T02:44:51.344Z,0.00
2022-08-23T02:45:51.323Z,0.00
2022-08-23T02:46:51.296Z,0.00
2022-08-23T02:47:51.296Z,0.00
2022-08-23T02:48:51.287Z,0.00
2022-08-23T02:49:51.268Z,0.00
2022-08-23T02:50:51.276Z,0.00
2022-08-23T02:51:51.232Z,0.00
2022-08-23T02:52:51.243Z,0.00
2022-08-23T02:53:51.207Z,0.00
2022-08-23T02:54:51.224Z,0.00
2022-08-23T02:55:51.215Z,0.00
2022-08-23T02:56:51.189Z,0.00
2022-08-23T02:57:51.159Z,0.00
2022-08-23T02:58:54.238Z,0.00
2022-08-23T02:59:51.157Z,0.00
2022-08-23T03:00:51.147Z,0.00
2022-08-23T03:01:51.120Z,0.00
2022-08-23T03:02:51.115Z,0.00
2022-08-23T03:03:51.120Z,0.00
2022-08-23T03:04:51.102Z,0.00
2022-08-23T03:05:51.094Z,0.00
2022-08-23T03:06:51.077Z,0.00
2022-08-23T03:07:51.060Z,0.00
2022-08-23T03:08:51.055Z,0.00
2022-08-23T03:09:51.030Z,0.00
2022-08-23T03:10:51.048Z,0.00
2022-08-23T03:11:51.021Z,0.00
2022-08-23T03:12:51.000Z,0.00
2022-08-23T03:13:51.605Z,0.00
2022-08-23T03:14:50.992Z,0.00
2022-08-23T03:15:50.980Z,0.00
2022-08-23T03:16:50.972Z,0.00
2022-08-23T03:17:50.960Z,0.00
2022-08-23T03:18:50.941Z,0.00
2022-08-23T03:19:50.923Z,0.00
2022-08-23T03:20:50.940Z,0.00
2022-08-23T03:21:50.893Z,0.00
2022-08-23T03:22:54.633Z,0.00
2022-08-23T03:23:50.881Z,0.00
2022-08-23T03:24:50.861Z,0.00
2022-08-23T03:25:50.864Z,0.00
2022-08-23T03:26:50.844Z,0.00
2022-08-23T03:27:50.841Z,0.00
2022-08-23T03:28:50.820Z,0.00
2022-08-23T03:29:50.793Z,0.00
2022-08-23T03:30:50.841Z,0.00
2022-08-23T03:31:50.784Z,0.00
2022-08-23T03:32:50.775Z,0.00
2022-08-23T03:33:50.972Z,0.00
2022-08-23T03:34:50.764Z,0.00
2022-08-23T03:35:50.733Z,0.00
2022-08-23T03:36:50.936Z,0.00
2022-08-23T03:37:55.034Z,0.00
2022-08-23T03:38:50.720Z,0.00
2022-08-23T03:39:50.725Z,0.00
2022-08-23T03:40:50.796Z,0.00
2022-08-23T03:41:50.677Z,0.00
2022-08-23T03:42:50.676Z,0.00
2022-08-23T03:43:50.647Z,0.00
2022-08-23T03:44:50.638Z,0.00
2022-08-23T03:45:51.804Z,0.00
2022-08-23T03:46:50.649Z,0.00
2022-08-23T03:47:50.625Z,0.00
2022-08-23T03:48:50.605Z,0.00
2022-08-23T03:49:50.586Z,0.00
2022-08-23T03:50:50.597Z,0.00
2022-08-23T03:51:50.565Z,0.00
2022-08-23T03:52:50.558Z,0.00
2022-08-23T03:53:50.798Z,0.00
2022-08-23T03:54:50.537Z,0.00
2022-08-23T03:55:50.525Z,0.00
2022-08-23T03:56:50.539Z,0.00
2022-08-23T03:57:50.497Z,0.00
2022-08-23T03:58:50.493Z,0.00
2022-08-23T03:59:50.485Z,0.00
2022-08-23T04:00:50.481Z,0.00
2022-08-23T04:01:50.576Z,0.00
2022-08-23T04:02:50.449Z,0.00
2022-08-23T04:03:50.418Z,0.00
2022-08-23T04:04:50.419Z,0.00
2022-08-23T04:05:50.397Z,0.00
2022-08-23T04:06:50.430Z,0.00
2022-08-23T04:07:50.390Z,0.00
2022-08-23T04:08:50.374Z,0.00
2022-08-23T04:09:54.836Z,0.00
2022-08-23T04:10:50.350Z,0.00
2022-08-23T04:11:50.334Z,0.00
2022-08-23T04:12:50.370Z,0.00
2022-08-23T04:13:50.310Z,0.00
2022-08-23T04:14:50.314Z,0.00
2022-08-23T04:15:50.290Z,0.00
2022-08-23T04:16:50.322Z,0.00
2022-08-23T04:17:50.262Z,0.00
2022-08-23T04:18:50.261Z,0.00
2022-08-23T04:19:50.262Z,0.00
2022-08-23T04:20:50.230Z,0.00
2022-08-23T04:21:50.222Z,0.00
2022-08-23T04:22:50.223Z,0.00
2022-08-23T04:23:50.207Z,0.00
2022-08-23T04:24:50.195Z,0.00
2022-08-23T04:25:50.161Z,0.00
2022-08-23T04:26:50.174Z,0.00
2022-08-23T04:27:50.141Z,0.00
2022-08-23T04:28:50.165Z,0.00
2022-08-23T04:29:50.122Z,0.00
2022-08-23T04:30:50.147Z,0.00
2022-08-23T04:31:50.146Z,0.00
2022-08-23T04:32:50.098Z,0.00
2022-08-23T04:33:52.289Z,0.00
2022-08-23T04:34:51.446Z,0.00
2022-08-23T04:35:50.529Z,0.00
2022-08-23T04:36:55.130Z,0.00
2022-08-23T04:37:51.051Z,0.00
2022-08-23T04:38:50.034Z,0.00
2022-08-23T04:39:51.641Z,0.00
2022-08-23T04:40:50.014Z,0.00
2022-08-23T04:41:50.007Z,5.62
2022-08-23T04:42:49.986Z,5.62
2022-08-23T04:43:49.974Z,5.62
2022-08-23T04:44:49.963Z,5.62
2022-08-23T04:45:49.958Z,5.62
2022-08-23T04:46:49.934Z,5.62
2022-08-23T04:47:49.929Z,5.62
2022-08-23T04:48:49.907Z,5.62
2022-08-23T04:49:49.903Z,5.62
2022-08-23T04:50:49.915Z,5.62
2022-08-23T04:51:53.826Z,5.62
2022-08-23T04:52:49.886Z,5.62
2022-08-23T04:53:49.855Z,5.62
2022-08-23T04:54:49.852Z,5.62
2022-08-23T04:55:49.839Z,5.62
2022-08-23T04:56:52.063Z,5.62
2022-08-23T04:57:49.847Z,5.62
2022-08-23T04:58:49.795Z,5.62
2022-08-23T04:59:49.786Z,11.25
2022-08-23T05:00:51.496Z,11.25
2022-08-23T05:01:49.799Z,11.25
2022-08-23T05:02:49.771Z,11.25
2022-08-23T05:03:49.741Z,11.25
2022-08-23T05:04:49.730Z,11.25
2022-08-23T05:05:49.723Z,11.25
2022-08-23T05:06:49.707Z,11.25
2022-08-23T05:07:49.711Z,11.25
2022-08-23T05:08:49.675Z,11.25
2022-08-23T05:09:49.683Z,11.25
2022-08-23T05:10:49.650Z,11.25
2022-08-23T05:11:49.662Z,11.25
2022-08-23T05:12:49.679Z,11.25
2022-08-23T05:13:49.638Z,11.25
2022-08-23T05:14:49.619Z,11.25
2022-08-23T05:15:49.603Z,11.25
2022-08-23T05:16:49.607Z,11.25
2022-08-23T05:17:49.591Z,11.25
2022-08-23T05:18:49.570Z,11.25
2022-08-23T05:19:49.591Z,16.88
2022-08-23T05:20:49.543Z,16.88
2022-08-23T05:21:51.158Z,16.88
2022-08-23T05:22:49.542Z,16.88
2022-08-23T05:23:50.975Z,16.88
2022-08-23T05:24:50.514Z,16.88
2022-08-23T05:25:49.493Z,16.88
2022-08-23T05:26:49.471Z,16.88
2022-08-23T05:27:49.471Z,16.88
2022-08-23T05:28:49.483Z,16.88
2022-08-23T05:29:49.444Z,16.88
2022-08-23T05:30:57.167Z,16.88
2022-08-23T05:31:50.423Z,16.88
2022-08-23T05:32:49.403Z,16.88
2022-08-23T05:33:49.424Z,16.88
2022-08-23T05:34:49.385Z,16.88
2022-08-23T05:35:49.383Z,16.88
2022-08-23T05:36:55.422Z,16.88
2022-08-23T05:37:50.355Z,16.88
2022-08-23T05:38:49.365Z,16.88
2022-08-23T05:39:49.367Z,16.88
2022-08-23T05:40:49.315Z,16.88
2022-08-23T05:41:50.307Z,16.88
2022-08-23T05:42:49.824Z,16.88
2022-08-23T05:43:49.307Z,16.88
2022-08-23T05:44:49.276Z,22.50
2022-08-23T05:45:49.263Z,22.50
2022-08-23T05:46:49.256Z,22.50
2022-08-23T05:47:49.800Z,22.50
2022-08-23T05:48:49.227Z,22.50
2022-08-23T05:49:49.228Z,22.50
2022-08-23T05:50:49.221Z,22.50
2022-08-23T05:51:51.554Z,22.50
2022-08-23T05:52:51.176Z,22.50
2022-08-23T05:53:49.195Z,22.50
2022-08-23T05:54:49.161Z,22.50
2022-08-23T05:55:49.169Z,22.50
2022-08-23T05:56:49.128Z,22.50
2022-08-23T05:57:49.136Z,22.50
2022-08-23T05:58:49.136Z,22.50
2022-08-23T05:59:49.108Z,22.50
2022-08-23T06:00:49.138Z,22.50
2022-08-23T06:01:50.237Z,22.50
2022-08-23T06:02:49.088Z,22.50
2022-08-23T06:03:49.060Z,22.50
2022-08-23T06:04:49.064Z,22.50
2022-08-23T06:05:49.040Z,22.50
2022-08-23T06:06:49.020Z,22.50
2022-08-23T06:07:49.375Z,22.50
2022-08-23T06:08:49.001Z,22.50
2022-08-23T06:09:49.013Z,22.50
2022-08-23T06:10:49.032Z,22.50
2022-08-23T06:11:48.962Z,22.50
2022-08-23T06:12:48.960Z,22.50
2022-08-23T06:13:49.003Z,22.50
2022-08-23T06:14:48.953Z,22.50
2022-08-23T06:15:48.921Z,22.50
2022-08-23T06:16:50.845Z,22.50
2022-08-23T06:17:48.900Z,28.12
2022-08-23T06:18:48.877Z,28.12
2022-08-23T06:19:48.892Z,28.12
2022-08-23T06:20:48.903Z,28.12
2022-08-23T06:21:48.852Z,28.12
2022-08-23T06:22:48.832Z,28.12
2022-08-23T06:23:48.829Z,28.12
2022-08-23T06:24:48.843Z,28.12
2022-08-23T06:25:48.832Z,28.12
2022-08-23T06:26:48.784Z,28.12
2022-08-23T06:27:48.795Z,28.12
2022-08-23T06:28:50.889Z,28.12
2022-08-23T06:29:48.775Z,28.12
2022-08-23T06:30:48.821Z,28.12
2022-08-23T06:31:48.803Z,28.12
2022-08-23T06:32:48.758Z,28.12
2022-08-23T06:33:48.764Z,28.12
2022-08-23T06:34:48.720Z,28.12
2022-08-23T06:35:48.713Z,28.12
2022-08-23T06:36:48.666Z,28.12
2022-08-23T06:37:48.684Z,28.12
2022-08-23T06:38:48.659Z,28.12
2022-08-23T06:39:48.684Z,28.12
2022-08-23T06:40:48.638Z,28.12
2022-08-23T06:41:48.633Z,28.12
2022-08-23T06:42:48.845Z,28.12
2022-08-23T06:43:48.810Z,28.12
2022-08-23T06:44:48.586Z,33.75
2022-08-23T06:45:54.990Z,33.75
2022-08-23T06:46:49.653Z,33.75
2022-08-23T06:47:48.557Z,33.75
2022-08-23T06:48:48.544Z,28.12
2022-08-23T06:49:55.433Z,33.75
2022-08-23T06:50:49.537Z,33.75
2022-08-23T06:51:48.545Z,33.75
2022-08-23T06:52:48.488Z,33.75
2022-08-23T06:53:48.497Z,33.75
2022-08-23T06:54:48.477Z,33.75
2022-08-23T06:55:48.466Z,33.75
2022-08-23T06:56:48.466Z,33.75
2022-08-23T06:57:48.450Z,33.75
2022-08-23T06:58:48.429Z,33.75
2022-08-23T06:59:48.429Z,33.75
2022-08-23T07:00:48.421Z,33.75
2022-08-23T07:01:48.516Z,33.75
2022-08-23T07:02:50.085Z,33.75
2022-08-23T07:03:48.377Z,33.75
2022-08-23T07:04:48.361Z,33.75
2022-08-23T07:05:48.358Z,39.38
2022-08-23T07:06:48.337Z,39.38
2022-08-23T07:07:48.363Z,39.38
2022-08-23T07:08:48.318Z,39.38
2022-08-23T07:09:48.358Z,39.38
2022-08-23T07:10:48.281Z,39.38
2022-08-23T07:11:48.288Z,39.38
2022-08-23T07:12:48.289Z,33.75
2022-08-23T07:13:48.288Z,39.38
2022-08-23T07:14:48.248Z,39.38
2022-08-23T07:15:50.063Z,33.75
2022-08-23T07:16:48.240Z,39.38
2022-08-23T07:17:48.273Z,39.38
2022-08-23T07:18:48.203Z,33.75
2022-08-23T07:19:48.203Z,39.38
2022-08-23T07:20:48.171Z,39.38
2022-08-23T07:21:48.823Z,39.38
2022-08-23T07:22:48.166Z,39.38
2022-08-23T07:23:48.173Z,39.38
2022-08-23T07:24:48.143Z,39.38
2022-08-23T07:25:48.130Z,39.38
2022-08-23T07:26:48.131Z,39.38
2022-08-23T07:27:48.130Z,33.75
2022-08-23T07:28:48.092Z,39.38
2022-08-23T07:29:48.095Z,39.38
2022-08-23T07:30:48.071Z,39.38
2022-08-23T07:31:48.159Z,39.38
2022-08-23T07:32:48.043Z,39.38
2022-08-23T07:33:48.042Z,39.38
2022-08-23T07:34:48.037Z,39.38
2022-08-23T07:35:48.015Z,39.38
2022-08-23T07:36:48.014Z,39.38
2022-08-23T07:37:48.003Z,39.38
2022-08-23T07:38:47.978Z,39.38
2022-08-23T07:39:48.010Z,45.00
2022-08-23T07:40:47.956Z,45.00
2022-08-23T07:41:49.408Z,45.00
2022-08-23T07:42:47.940Z,45.00
2022-08-23T07:43:47.935Z,45.00
2022-08-23T07:44:47.907Z,45.00
2022-08-23T07:45:47.907Z,45.00
2022-08-23T07:46:47.938Z,45.00
2022-08-23T07:48:06.844Z,45.00
2022-08-23T07:48:54.225Z,45.00
2022-08-23T07:49:48.857Z,45.00
2022-08-23T07:50:54.548Z,39.38
2022-08-23T07:51:48.855Z,39.38
2022-08-23T07:52:47.817Z,45.00
2022-08-23T07:53:47.817Z,45.00
2022-08-23T07:54:48.511Z,45.00
2022-08-23T07:55:47.800Z,39.38
2022-08-23T07:56:47.797Z,45.00
2022-08-23T07:57:47.777Z,39.38
2022-08-23T07:58:47.750Z,39.38
2022-08-23T07:59:47.749Z,39.38
2022-08-23T08:00:47.737Z,39.38
2022-08-23T08:01:47.780Z,39.38
2022-08-23T08:02:47.808Z,45.00
2022-08-23T08:03:47.710Z,39.38
2022-08-23T08:04:47.678Z,39.38
2022-08-23T08:05:47.690Z,39.38
2022-08-23T08:06:56.119Z,39.38
2022-08-23T08:07:48.671Z,39.38
2022-08-23T08:08:47.629Z,45.00
2022-08-23T08:09:47.643Z,45.00
2022-08-23T08:10:47.610Z,45.00
2022-08-23T08:11:47.829Z,39.38
2022-08-23T08:12:47.610Z,45.00
2022-08-23T08:13:48.293Z,50.62
2022-08-23T08:14:47.593Z,50.62
2022-08-23T08:15:47.630Z,50.62
2022-08-23T08:16:47.561Z,50.62
2022-08-23T08:17:47.561Z,50.62
2022-08-23T08:18:47.534Z,50.62
2022-08-23T08:19:47.521Z,50.62
2022-08-23T08:20:47.514Z,50.62
2022-08-23T08:21:47.516Z,50.62
2022-08-23T08:22:49.962Z,50.62
2022-08-23T08:23:48.486Z,50.62
2022-08-23T08:24:47.484Z,50.62
2022-08-23T08:25:47.468Z,50.62
2022-08-23T08:26:47.434Z,50.62
2022-08-23T08:27:47.454Z,50.62
2022-08-23T08:28:47.434Z,50.62
2022-08-23T08:29:47.426Z,50.62
2022-08-23T08:30:47.407Z,50.62
2022-08-23T08:31:50.311Z,50.62
2022-08-23T08:32:48.397Z,50.62
2022-08-23T08:33:47.371Z,50.62
2022-08-23T08:34:47.358Z,50.62
2022-08-23T08:35:47.374Z,56.25
2022-08-23T08:36:48.346Z,56.25
2022-08-23T08:37:47.365Z,56.25
2022-08-23T08:38:48.477Z,56.25
2022-08-23T08:39:47.348Z,56.25
2022-08-23T08:40:47.286Z,56.25
2022-08-23T08:41:47.298Z,56.25
2022-08-23T08:42:47.278Z,56.25
2022-08-23T08:43:47.259Z,56.25
2022-08-23T08:44:47.244Z,50.62
2022-08-23T08:45:58.730Z,56.25
2022-08-23T08:46:48.272Z,56.25
2022-08-23T08:47:47.231Z,56.25
2022-08-23T08:48:47.199Z,56.25
2022-08-23T08:49:47.199Z,56.25
2022-08-23T08:50:47.179Z,56.25
2022-08-23T08:51:47.170Z,56.25
2022-08-23T08:52:47.170Z,56.25
2022-08-23T08:53:47.162Z,56.25
2022-08-23T08:54:48.267Z,61.88
2022-08-23T08:55:47.122Z,56.25
2022-08-23T08:56:47.119Z,61.88
2022-08-23T08:57:47.103Z,61.88
2022-08-23T08:58:47.104Z,61.88
2022-08-23T08:59:47.080Z,61.88
2022-08-23T09:00:47.071Z,61.88
2022-08-23T09:01:47.121Z,61.88
2022-08-23T09:02:47.074Z,61.88
2022-08-23T09:03:47.043Z,61.88
2022-08-23T09:04:47.043Z,61.88
2022-08-23T09:05:47.002Z,61.88
2022-08-23T09:06:47.003Z,61.88
2022-08-23T09:07:47.003Z,61.88
2022-08-23T09:08:46.998Z,61.88
2022-08-23T09:09:46.996Z,61.88
2022-08-23T09:10:46.966Z,61.88
2022-08-23T09:11:47.735Z,61.88
2022-08-23T09:12:46.975Z,67.50
2022-08-23T09:13:46.935Z,67.50
2022-08-23T09:14:46.923Z,67.50
2022-08-23T09:15:46.932Z,67.50
2022-08-23T09:16:46.917Z,67.50
2022-08-23T09:17:46.899Z,67.50
2022-08-23T09:18:46.887Z,67.50
2022-08-23T09:19:46.856Z,67.50
2022-08-23T09:20:46.859Z,67.50
2022-08-23T09:21:46.867Z,67.50
2022-08-23T09:22:46.847Z,67.50
2022-08-23T09:23:46.821Z,67.50
2022-08-23T09:24:46.820Z,67.50
2022-08-23T09:25:46.788Z,61.88
2022-08-23T09:26:46.788Z,61.88
2022-08-23T09:27:46.770Z,61.88
2022-08-23T09:28:47.944Z,61.88
2022-08-23T09:29:47.730Z,67.50
2022-08-23T09:30:46.744Z,67.50
2022-08-23T09:31:46.753Z,67.50
2022-08-23T09:32:46.723Z,67.50
2022-08-23T09:33:46.724Z,67.50
2022-08-23T09:34:46.702Z,67.50
2022-08-23T09:35:46.703Z,67.50
2022-08-23T09:36:46.690Z,67.50
2022-08-23T09:37:46.671Z,67.50
2022-08-23T09:38:46.664Z,67.50
2022-08-23T09:39:46.742Z,67.50
2022-08-23T09:40:46.643Z,67.50
2022-08-23T09:41:46.614Z,67.50
2022-08-23T09:42:46.615Z,67.50
2022-08-23T09:43:46.597Z,67.50
2022-08-23T09:44:46.603Z,67.50
2022-08-23T09:45:46.576Z,67.50
2022-08-23T09:46:46.564Z,67.50
2022-08-23T09:47:46.556Z,67.50
2022-08-23T09:48:46.563Z,67.50
2022-08-23T09:49:46.537Z,67.50
2022-08-23T09:50:46.529Z,67.50
2022-08-23T09:51:46.508Z,67.50
2022-08-23T09:52:46.495Z,67.50
2022-08-23T09:53:46.515Z,67.50
2022-08-23T09:54:47.641Z,67.50
2022-08-23T09:55:46.478Z,67.50
2022-08-23T09:56:46.459Z,73.12
2022-08-23T09:57:46.427Z,73.12
2022-08-23T09:58:46.439Z,73.12
2022-08-23T09:59:46.428Z,73.12
2022-08-23T10:00:46.431Z,73.12
2022-08-23T10:01:46.435Z,73.12
2022-08-23T10:02:46.403Z,73.12
2022-08-23T10:03:46.591Z,73.12
2022-08-23T10:04:46.439Z,73.12
2022-08-23T10:05:46.359Z,73.12
2022-08-23T10:06:46.369Z,73.12
2022-08-23T10:07:46.332Z,73.12
2022-08-23T10:08:46.343Z,73.12
2022-08-23T10:09:46.320Z,78.75
2022-08-23T10:10:46.311Z,78.75
2022-08-23T10:11:46.303Z,78.75
2022-08-23T10:12:46.285Z,78.75
2022-08-23T10:13:46.283Z,78.75
2022-08-23T10:14:46.276Z,78.75
2022-08-23T10:15:46.307Z,78.75
2022-08-23T10:16:46.243Z,78.75
2022-08-23T10:17:46.235Z,78.75
2022-08-23T10:18:46.244Z,78.75
2022-08-23T10:19:47.850Z,78.75
2022-08-23T10:20:46.207Z,78.75
2022-08-23T10:21:46.183Z,78.75
2022-08-23T10:22:46.187Z,78.75
2022-08-23T10:23:46.148Z,78.75
2022-08-23T10:24:46.178Z,78.75
2022-08-23T10:25:46.135Z,78.75
2022-08-23T10:26:46.128Z,78.75
2022-08-23T10:27:46.116Z,78.75
2022-08-23T10:28:46.116Z,78.75
2022-08-23T10:29:46.116Z,78.75
2022-08-23T10:30:46.148Z,78.75
2022-08-23T10:31:46.059Z,78.75
2022-08-23T10:32:46.073Z,84.38
2022-08-23T10:33:46.050Z,84.38
2022-08-23T10:34:50.377Z,84.38
2022-08-23T10:35:46.032Z,84.38
2022-08-23T10:36:46.035Z,84.38
2022-08-23T10:37:47.039Z,84.38
2022-08-23T10:38:46.012Z,84.38
2022-08-23T10:39:46.051Z,78.75
2022-08-23T10:40:46.014Z,67.50
2022-08-23T10:41:45.985Z,67.50
2022-08-23T10:42:45.952Z,67.50
2022-08-23T10:43:45.940Z,61.88
2022-08-23T10:44:45.972Z,67.50
2022-08-23T10:45:45.911Z,67.50
2022-08-23T10:46:46.055Z,67.50
2022-08-23T10:47:45.893Z,67.50
2022-08-23T10:48:45.904Z,67.50
2022-08-23T10:49:45.876Z,67.50
2022-08-23T10:50:54.645Z,67.50
2022-08-23T10:51:46.855Z,67.50
2022-08-23T10:52:45.849Z,73.12
2022-08-23T10:53:45.846Z,73.12
2022-08-23T10:54:45.836Z,73.12
2022-08-23T10:55:45.815Z,67.50
2022-08-23T10:56:51.164Z,73.12
2022-08-23T10:57:46.790Z,73.12
2022-08-23T10:58:47.365Z,73.12
2022-08-23T10:59:45.776Z,73.12
2022-08-23T11:00:45.777Z,67.50
2022-08-23T11:01:45.788Z,73.12
2022-08-23T11:02:45.795Z,61.88
2022-08-23T11:03:45.729Z,67.50
2022-08-23T11:04:45.722Z,78.75
2022-08-23T11:05:45.717Z,78.75
2022-08-23T11:06:45.700Z,78.75
2022-08-23T11:07:45.692Z,78.75
2022-08-23T11:08:47.810Z,78.75
2022-08-23T11:09:45.652Z,78.75
2022-08-23T11:10:56.469Z,78.75
2022-08-23T11:11:46.643Z,73.12
2022-08-23T11:12:45.653Z,73.12
2022-08-23T11:13:45.622Z,73.12
2022-08-23T11:14:45.624Z,67.50
2022-08-23T11:15:45.668Z,67.50
2022-08-23T11:16:45.613Z,73.12
2022-08-23T11:17:45.585Z,78.75
2022-08-23T11:18:45.568Z,84.38
2022-08-23T11:19:45.553Z,84.38
2022-08-23T11:20:45.574Z,84.38
2022-08-23T11:21:45.524Z,73.12
2022-08-23T11:22:45.533Z,73.12
2022-08-23T11:23:45.513Z,67.50
2022-08-23T11:24:45.549Z,56.25
2022-08-23T11:25:45.505Z,73.12
2022-08-23T11:26:45.478Z,84.38
2022-08-23T11:27:45.477Z,78.75
2022-08-23T11:28:45.466Z,78.75
2022-08-23T11:29:45.447Z,84.38
2022-08-23T11:30:45.489Z,78.75
2022-08-23T11:31:45.435Z,73.12
2022-08-23T11:32:45.430Z,78.75
2022-08-23T11:33:45.395Z,78.75
2022-08-23T11:34:45.401Z,78.75
2022-08-23T11:35:45.388Z,67.50
2022-08-23T11:36:45.400Z,84.38
2022-08-23T11:37:45.359Z,73.12
2022-08-23T11:38:45.348Z,67.50
2022-08-23T11:39:45.401Z,78.75
2022-08-23T11:40:45.348Z,73.12
2022-08-23T11:41:45.340Z,73.12
2022-08-23T11:42:45.319Z,84.38
2022-08-23T11:43:45.291Z,84.38
2022-08-23T11:44:45.294Z,84.38
2022-08-23T11:45:45.299Z,84.38
2022-08-23T11:46:45.311Z,84.38
2022-08-23T11:47:45.265Z,78.75
2022-08-23T11:48:45.246Z,78.75
2022-08-23T11:49:45.232Z,56.25
2022-08-23T11:50:45.226Z,50.62
2022-08-23T11:51:45.216Z,61.88
2022-08-23T11:52:45.232Z,78.75
2022-08-23T11:53:45.184Z,73.12
2022-08-23T11:54:45.191Z,67.50
2022-08-23T11:55:45.164Z,73.12
2022-08-23T11:56:46.427Z,78.75
2022-08-23T11:57:45.176Z,73.12
2022-08-23T11:58:45.143Z,73.12
2022-08-23T11:59:45.125Z,84.38
2022-08-23T12:00:45.137Z,84.38
2022-08-23T12:01:45.109Z,90.00
2022-08-23T12:02:45.251Z,90.00
2022-08-23T12:03:46.090Z,90.00
2022-08-23T12:04:45.088Z,90.00
2022-08-23T12:05:45.059Z,84.38
2022-08-23T12:06:51.001Z,84.38
2022-08-23T12:07:46.065Z,78.75
2022-08-23T12:08:45.082Z,90.00
2022-08-23T12:09:45.070Z,84.38
2022-08-23T12:10:45.022Z,73.12
2022-08-23T12:11:45.009Z,78.75
2022-08-23T12:12:47.292Z,73.12
2022-08-23T12:13:44.995Z,84.38
2022-08-23T12:14:44.969Z,84.38
2022-08-23T12:15:45.023Z,90.00
2022-08-23T12:16:49.797Z,90.00
2022-08-23T12:17:45.933Z,90.00
2022-08-23T12:18:47.744Z,90.00
2022-08-23T12:19:44.909Z,84.38
2022-08-23T12:20:48.706Z,90.00
2022-08-23T12:21:44.885Z,78.75
2022-08-23T12:22:44.893Z,78.75
2022-08-23T12:23:48.021Z,67.50
2022-08-23T12:24:44.873Z,73.12
2022-08-23T12:25:44.846Z,73.12
2022-08-23T12:26:44.846Z,78.75
2022-08-23T12:27:44.825Z,90.00
2022-08-23T12:28:44.975Z,90.00
2022-08-23T12:29:44.846Z,84.38
2022-08-23T12:30:44.951Z,84.38
2022-08-23T12:31:45.108Z,73.12
2022-08-23T12:32:44.798Z,78.75
2022-08-23T12:33:45.898Z,84.38
2022-08-23T12:34:44.918Z,90.00
2022-08-23T12:35:44.753Z,78.75
2022-08-23T12:36:44.749Z,73.12
2022-08-23T12:37:45.069Z,61.88
2022-08-23T12:38:44.718Z,56.25
2022-08-23T12:39:44.754Z,56.25
2022-08-23T12:40:44.710Z,56.25
2022-08-23T12:41:44.678Z,73.12
2022-08-23T12:42:44.677Z,84.38
2022-08-23T12:43:44.649Z,90.00
2022-08-23T12:44:44.649Z,90.00
2022-08-23T12:45:44.642Z,84.38
2022-08-23T12:46:44.681Z,73.12
2022-08-23T12:47:44.649Z,73.12
2022-08-23T12:48:44.613Z,84.38
2022-08-23T12:49:44.641Z,73.12
2022-08-23T12:50:44.596Z,73.12
2022-08-23T12:51:44.582Z,78.75
2022-08-23T12:52:44.574Z,73.12
2022-08-23T12:53:45.527Z,78.75
2022-08-23T12:54:44.601Z,67.50
2022-08-23T12:55:44.538Z,90.00
2022-08-23T12:56:44.537Z,90.00
2022-08-23T12:57:44.527Z,90.00
2022-08-23T12:58:44.567Z,67.50
2022-08-23T12:59:44.488Z,61.88
2022-08-23T13:00:44.498Z,67.50
2022-08-23T13:01:44.515Z,90.00
2022-08-23T13:02:44.500Z,78.75
2022-08-23T13:03:44.465Z,73.12